createdAt,value
2023-04-23T00:01:44.099Z,100006.12
2023-04-23T00:03:59.091Z,100003.13
2023-04-23T00:06:11.130Z,100008.48
2023-04-23T00:08:22.499Z,100008.7
2023-04-23T00:10:34.618Z,100008.98
2023-04-23T00:12:46.438Z,100002.23
2023-04-23T00:14:58.016Z,100001.13
2023-04-23T00:17:09.196Z,100006.17
2023-04-23T00:19:24.394Z,100001.75
2023-04-23T00:21:35.398Z,100006.53
2023-04-23T00:23:46.658Z,100000.92
2023-04-23T00:25:57.798Z,99999.4
2023-04-23T00:28:08.576Z,100004.16
2023-04-23T00:30:18.557Z,99996.94
2023-04-23T00:32:30.601Z,99997.86
2023-04-23T00:34:42.707Z,99995.03
2023-04-23T00:36:53.949Z,99996.02
2023-04-23T00:39:04.537Z,99993.73
2023-04-23T00:41:16.421Z,99989.02
2023-04-23T00:43:27.995Z,99992.95
2023-04-23T00:45:38.981Z,99993.38
2023-04-23T00:47:51.125Z,99988.13
2023-04-23T00:50:02.115Z,99990.76
2023-04-23T00:52:13.236Z,99996.01
2023-04-23T00:54:24.584Z,99993.59
2023-04-23T00:56:37.057Z,99990.16
2023-04-23T00:58:49.096Z,99991.11
2023-04-23T01:01:00.519Z,99992.88
2023-04-23T01:03:12.131Z,99995.08
2023-04-23T01:05:23.161Z,99990.83
2023-04-23T01:07:34.116Z,99994.8
2023-04-23T01:09:44.464Z,99997.45
2023-04-23T01:11:55.398Z,99998.55
2023-04-23T01:14:07.280Z,99998.07
2023-04-23T01:16:18.348Z,100000.53
2023-04-23T01:18:29.471Z,100000.86
2023-04-23T01:20:39.953Z,100000.25
2023-04-23T01:22:50.898Z,100000.04
2023-04-23T01:25:01.200Z,99997.38
2023-04-23T01:27:12.819Z,99999.75
2023-04-23T01:29:23.379Z,99999.95
2023-04-23T01:31:34.098Z,99996.03
2023-04-23T01:33:48.384Z,99992.14
2023-04-23T01:36:01.442Z,99999.91
2023-04-23T01:38:12.744Z,99998.81
2023-04-23T01:40:23.910Z,99997.91
2023-04-23T01:42:36.098Z,99995.64
2023-04-23T01:44:46.942Z,100001.62
2023-04-23T01:46:59.696Z,99997.57
2023-04-23T01:49:13.776Z,99995.08
2023-04-23T01:51:24.856Z,99998.06
2023-04-23T01:53:36.577Z,99997.25
2023-04-23T01:55:48.258Z,99995.13
2023-04-23T01:57:59.236Z,99996.31
2023-04-23T02:00:10.836Z,99994.67
2023-04-23T02:02:23.719Z,99999.42
2023-04-23T02:04:36.476Z,100001.97
2023-04-23T02:06:47.758Z,100002.2
2023-04-23T02:09:00.376Z,99999.67
2023-04-23T02:11:12.613Z,100002.13
2023-04-23T02:13:23.201Z,99999.75
2023-04-23T02:15:34.922Z,99994.64
2023-04-23T02:17:45.455Z,99997.05
2023-04-23T02:19:57.542Z,99993.98
2023-04-23T02:22:08.099Z,99992.13
2023-04-23T02:24:20.782Z,99989.19
2023-04-23T02:26:33.578Z,99990.66
2023-04-23T02:28:45.660Z,99995.11
2023-04-23T02:30:56.115Z,99991.55
2023-04-23T02:33:07.297Z,99996.58
2023-04-23T02:35:19.158Z,99993.63
2023-04-23T02:37:30.480Z,99992.23
2023-04-23T02:39:42.178Z,99993.77
2023-04-23T02:41:52.588Z,99992.63
2023-04-23T02:44:03.664Z,99991.06
2023-04-23T02:46:14.175Z,99993.91
2023-04-23T02:48:24.938Z,99987.37
2023-04-23T02:50:35.279Z,99987.53
2023-04-23T02:52:47.976Z,99989.16
2023-04-23T02:54:58.336Z,99990.98
2023-04-23T02:57:10.477Z,99993.88
2023-04-23T02:59:22.095Z,99992.39
2023-04-23T03:01:33.599Z,99993.08
2023-04-23T03:03:45.154Z,99992.77
2023-04-23T03:05:56.721Z,99991.95
2023-04-23T03:08:08.897Z,99995.62
2023-04-23T03:10:20.518Z,99990.06
2023-04-23T03:12:34.744Z,99991.09
2023-04-23T03:14:46.594Z,99987.97
2023-04-23T03:16:59.141Z,99987.03
2023-04-23T03:19:10.917Z,99985.86
2023-04-23T03:21:23.135Z,99989.92
2023-04-23T03:23:34.738Z,99989.01
2023-04-23T03:25:47.068Z,99989.16
2023-04-23T03:27:58.276Z,99989.63
2023-04-23T03:30:09.274Z,99990.45
2023-04-23T03:32:19.935Z,99994.05
2023-04-23T03:34:31.097Z,99988.95
2023-04-23T03:36:42.494Z,99985.93
2023-04-23T03:38:54.535Z,99987.77
2023-04-23T03:41:07.441Z,99987.86
2023-04-23T03:43:21.237Z,99983.6
2023-04-23T03:45:34.041Z,99982.74
2023-04-23T03:47:47.488Z,99984.38
2023-04-23T03:50:01.263Z,99980.02
2023-04-23T03:52:12.719Z,99985.2
2023-04-23T03:54:24.196Z,99984.84
2023-04-23T03:56:35.198Z,99986.03
2023-04-23T03:58:48.377Z,99982.72
2023-04-23T04:01:00.324Z,99988.7
2023-04-23T04:03:12.064Z,99991.04
2023-04-23T04:05:25.449Z,99991.05
2023-04-23T04:07:36.586Z,99992.8
2023-04-23T04:09:47.343Z,99989.52
2023-04-23T04:12:02.524Z,99989.49
2023-04-23T04:14:14.574Z,99990.44
2023-04-23T04:16:26.951Z,99992.2
2023-04-23T04:18:38.318Z,99990.83
2023-04-23T04:20:49.200Z,99994.8
2023-04-23T04:23:00.022Z,99987.39
2023-04-23T04:25:11.763Z,99990.31
2023-04-23T05:05:24.435Z,99990.97
2023-04-23T05:47:09.827Z,99944.89
2023-04-23T05:50:10.738Z,99944.31
2023-04-23T05:52:24.875Z,99943.42
2023-04-23T05:54:37.496Z,99945.81
2023-04-23T05:56:58.413Z,99944.64
2023-04-23T05:59:19.097Z,99939.41
2023-04-23T06:01:41.174Z,99939.97
2023-04-23T06:03:55.458Z,99942.52
2023-04-23T06:06:18.075Z,99941.69
2023-04-23T06:08:39.138Z,99938.91
2023-04-23T06:10:56.097Z,99938.88
2023-04-23T06:13:12.101Z,99939.61
2023-04-23T06:15:33.702Z,99940.88
2023-04-23T06:17:47.004Z,99939.16
2023-04-23T06:20:05.620Z,99942.13
2023-04-23T06:22:22.055Z,99941.11
2023-04-23T06:24:34.760Z,99937.86
2023-04-23T06:26:45.570Z,99937.89
2023-04-23T06:28:58.259Z,99934.91
2023-04-23T06:31:14.719Z,99938.18
2023-04-23T06:33:27.775Z,99937.98
2023-04-23T06:35:39.278Z,99934.75
2023-04-23T06:37:52.896Z,99936.27
2023-04-23T06:40:09.119Z,99936.3
2023-04-23T06:42:25.582Z,99934.86
2023-04-23T06:44:44.064Z,99932.08
2023-04-23T06:47:05.582Z,99934.75
2023-04-23T06:49:17.174Z,99932.86
2023-04-23T06:51:28.528Z,99931.89
2023-04-23T06:53:44.271Z,99929.74
2023-04-23T06:55:55.654Z,99932.05
2023-04-23T06:58:11.681Z,99926.25
2023-04-23T07:00:30.927Z,99924.48
2023-04-23T07:02:44.652Z,99930.23
2023-04-23T07:04:58.544Z,99928.4
2023-04-23T07:07:14.591Z,99925.84
2023-04-23T07:09:34.091Z,99925.14
2023-04-23T07:11:48.750Z,99922.18
2023-04-23T07:14:07.321Z,99923.05
2023-04-23T07:16:30.924Z,99921.81
2023-04-23T07:18:54.719Z,99921.73
2023-04-23T07:21:18.771Z,99921.31
2023-04-23T07:23:29.721Z,99923.88
2023-04-23T07:25:41.836Z,99920.31
2023-04-23T07:28:01.836Z,99920.56
2023-04-23T07:30:21.565Z,99918.55
2023-04-23T07:32:34.867Z,99916.59
2023-04-23T07:34:53.383Z,99914.15
2023-04-23T07:37:06.721Z,99909.81
2023-04-23T07:39:19.553Z,99906.53
2023-04-23T07:41:31.757Z,99911.09
2023-04-23T07:43:45.996Z,99904.25
2023-04-23T07:45:57.601Z,99897.2
2023-04-23T07:48:12.201Z,99909.39
2023-04-23T07:50:22.974Z,99897.7
2023-04-23T07:52:36.414Z,99904.87
2023-04-23T07:54:48.454Z,99901.95
2023-04-23T07:56:59.874Z,99899.02
2023-04-23T07:59:13.797Z,99893.3
2023-04-23T08:01:26.876Z,99898.75
2023-04-23T08:03:40.960Z,99893.47
2023-04-23T08:05:53.857Z,99893.52
2023-04-23T08:08:11.641Z,99890.19
2023-04-23T08:10:27.393Z,99891.39
2023-04-23T08:12:40.222Z,99891.31
2023-04-23T08:14:53.658Z,99882.18
2023-04-23T08:17:05.092Z,99882.89
2023-04-23T08:19:16.655Z,99886.96
2023-04-23T08:21:28.882Z,99879.41
2023-04-23T08:23:41.015Z,99884.66
2023-04-23T08:25:51.278Z,99883.39
2023-04-23T08:28:02.406Z,99880.39
2023-04-23T08:30:17.640Z,99880.21
2023-04-23T08:32:29.255Z,99879.38
2023-04-23T08:34:40.474Z,99878.98
2023-04-23T08:36:52.474Z,99884.14
2023-04-23T08:39:04.974Z,99886.62
2023-04-23T08:41:18.589Z,99886.2
2023-04-23T08:43:31.095Z,99876.01
2023-04-23T08:45:46.638Z,99874.07
2023-04-23T08:48:01.976Z,99865
2023-04-23T08:50:27.977Z,99867.73
2023-04-23T08:52:40.722Z,99872.95
2023-04-23T08:54:59.460Z,99861.99
2023-04-23T08:57:11.018Z,99861.8
2023-04-23T08:59:24.796Z,99855.56
2023-04-23T09:01:36.419Z,99856.86
2023-04-23T09:03:48.813Z,99846.52
2023-04-23T09:06:00.679Z,99854.88
2023-04-23T09:08:12.856Z,99851.42
2023-04-23T09:10:24.233Z,99847.41
2023-04-23T09:12:36.308Z,99845.86
2023-04-23T09:14:47.552Z,99847.99
2023-04-23T09:16:59.320Z,99841.31
2023-04-23T09:19:10.179Z,99841.9
2023-04-23T09:21:24.217Z,99854.2
2023-04-23T09:23:36.796Z,99842.72
2023-04-23T09:25:48.212Z,99844.92
2023-04-23T09:27:59.793Z,99842.5
2023-04-23T09:30:15.856Z,99845.66
2023-04-23T09:32:31.856Z,99834.55
2023-04-23T09:34:46.014Z,99841.63
2023-04-23T09:36:58.834Z,99839
2023-04-23T09:39:09.815Z,99832.98
2023-04-23T09:41:25.177Z,99830.02
2023-04-23T09:43:38.310Z,99821.58
2023-04-23T09:45:51.535Z,99825.11
2023-04-23T09:48:04.765Z,99828.21
2023-04-23T09:50:18.840Z,99822.03
2023-04-23T09:52:33.297Z,99822.24
2023-04-23T09:54:51.612Z,99816.88
2023-04-23T09:57:11.071Z,99812.43
2023-04-23T09:59:46.582Z,99809.27
2023-04-23T10:02:23.669Z,99803.17
2023-04-23T10:04:38.322Z,99801.42
2023-04-23T10:07:18.697Z,99807.39
2023-04-23T10:09:35.278Z,99799.03
2023-04-23T10:11:52.878Z,99797.23
2023-04-23T10:14:04.256Z,99783.84
2023-04-23T10:16:32.955Z,99792.56
2023-04-23T10:19:02.312Z,99783.5
2023-04-23T10:21:16.329Z,99782.77
2023-04-23T10:23:32.819Z,99783.62
2023-04-23T10:25:44.210Z,99787.99
2023-04-23T10:27:56.768Z,99778.63
2023-04-23T10:30:09.470Z,99773.42
2023-04-23T10:32:20.078Z,99769.06
2023-04-23T10:34:31.175Z,99771.28
2023-04-23T10:36:43.935Z,99767.5
2023-04-23T10:39:03.108Z,99772.55
2023-04-23T10:41:16.257Z,99765.78
2023-04-23T10:43:33.371Z,99758.95
2023-04-23T10:45:45.764Z,99758.13
2023-04-23T10:47:57.434Z,99753.19
2023-04-23T10:50:08.965Z,99754.19
2023-04-23T10:52:26.870Z,99762.73
2023-04-23T10:54:39.451Z,99756.78
2023-04-23T10:56:56.652Z,99751.7
2023-04-23T10:59:13.652Z,99743.85
2023-04-23T11:01:28.463Z,99744.92
2023-04-23T11:03:45.894Z,99742.31
2023-04-23T11:05:59.118Z,99744.92
2023-04-23T11:08:24.033Z,99743.61
2023-04-23T11:10:40.052Z,99742.92
2023-04-23T11:12:54.531Z,99742.22
2023-04-23T11:15:06.075Z,99730.94
2023-04-23T11:17:33.888Z,99730.63
2023-04-23T11:19:51.470Z,99726.24
2023-04-23T11:22:08.139Z,99723.43
2023-04-23T11:24:20.736Z,99722.25
2023-04-23T11:26:45.465Z,99726.94
2023-04-23T11:28:59.037Z,99724.34
2023-04-23T11:31:12.855Z,99722.52
2023-04-23T11:33:32.041Z,99716.39
2023-04-23T11:35:47.774Z,99711.42
2023-04-23T11:38:06.754Z,99705.39
2023-04-23T11:40:23.611Z,99707.41
2023-04-23T11:42:36.473Z,99715.23
2023-04-23T11:44:49.174Z,99708.84
2023-04-23T11:47:01.023Z,99703.47
2023-04-23T11:49:15.901Z,99704.41
2023-04-23T11:51:30.135Z,99701.62
2023-04-23T11:53:43.892Z,99706
2023-04-23T11:55:55.371Z,99706.32
2023-04-23T11:58:07.254Z,99701.32
2023-04-23T12:00:18.920Z,99705.55
2023-04-23T12:02:30.027Z,99702.61
2023-04-23T12:04:57.341Z,99701.83
2023-04-23T12:07:30.214Z,99705.67
2023-04-23T12:09:46.187Z,99699.14
2023-04-23T12:11:57.581Z,99695.8
2023-04-23T12:14:11.675Z,99690.55
2023-04-23T12:16:32.868Z,99698.73
2023-04-23T12:18:43.151Z,99690.88
2023-04-23T12:20:55.815Z,99687.98
2023-04-23T12:23:10.188Z,99683.19
2023-04-23T12:25:23.958Z,99678.93
2023-04-23T12:27:47.985Z,99676.44
2023-04-23T12:30:00.147Z,99680.16
2023-04-23T12:32:14.136Z,99676.59
2023-04-23T12:34:26.872Z,99672.98
2023-04-23T12:36:43.556Z,99678.98
2023-04-23T12:38:56.330Z,99674.53
2023-04-23T12:41:09.154Z,99674.98
2023-04-23T12:43:22.527Z,99671.06
2023-04-23T12:45:34.058Z,99662.08
2023-04-23T12:47:47.267Z,99658.41
2023-04-23T12:50:03.852Z,99653.45
2023-04-23T12:52:24.656Z,99659.39
2023-04-23T12:54:40.292Z,99660.22
2023-04-23T12:56:53.959Z,99658.49
2023-04-23T12:59:07.278Z,99647.02
2023-04-23T13:01:17.760Z,99648.01
2023-04-23T13:03:32.106Z,99652.77
2023-04-23T13:06:00.560Z,99639.55
2023-04-23T13:08:12.871Z,99636.45
2023-04-23T13:10:24.856Z,99629.43
2023-04-23T13:12:41.101Z,99630.09
2023-04-23T13:14:55.840Z,99627.69
2023-04-23T13:17:11.413Z,99623.55
2023-04-23T13:19:27.438Z,99615.56
2023-04-23T13:21:39.113Z,99620.3
2023-04-23T13:23:52.330Z,99620.39
2023-04-23T13:26:06.620Z,99618.41
2023-04-23T13:28:19.812Z,99608.36
2023-04-23T13:30:33.349Z,99609.45
2023-04-23T13:32:45.889Z,99607.66
2023-04-23T13:35:01.393Z,99603.62
2023-04-23T13:37:19.334Z,99605.05
2023-04-23T13:39:31.473Z,99601.89
2023-04-23T13:42:02.681Z,99593.92
2023-04-23T13:44:30.207Z,99604.53
2023-04-23T13:46:47.437Z,99593.44
2023-04-23T13:49:00.451Z,99591.3
2023-04-23T13:51:35.134Z,99588.42
2023-04-23T13:53:49.570Z,99584.28
2023-04-23T13:56:01.720Z,99582.95
2023-04-23T13:58:15.484Z,99586.6
2023-04-23T14:00:27.837Z,99577.77
2023-04-23T14:02:43.632Z,99575.72
2023-04-23T14:04:55.498Z,99576.86
2023-04-23T14:07:09.095Z,99567.25
2023-04-23T14:09:23.179Z,99565.84
2023-04-23T14:11:35.734Z,99557.56
2023-04-23T14:13:46.216Z,99556.1
2023-04-23T14:15:57.982Z,99552.63
2023-04-23T14:18:18.977Z,99554.19
2023-04-23T14:20:32.038Z,99552.35
2023-04-23T14:22:49.611Z,99553.92
2023-04-23T14:25:04.276Z,99550.16
2023-04-23T14:27:15.002Z,99551.98
2023-04-23T14:29:29.860Z,99549.39
2023-04-23T14:31:43.294Z,99552.17
2023-04-23T14:33:57.312Z,99549.5
2023-04-23T14:36:08.773Z,99551.28
2023-04-23T14:38:21.713Z,99547.32
2023-04-23T14:40:36.291Z,99545.8
2023-04-23T14:43:14.874Z,99543.86
2023-04-23T14:45:31.857Z,99538.16
2023-04-23T14:47:45.930Z,99538.58
2023-04-23T14:50:00.012Z,99533.22
2023-04-23T14:52:11.312Z,99537.38
2023-04-23T14:54:24.704Z,99537.52
2023-04-23T14:56:38.576Z,99535.39
2023-04-23T14:58:53.533Z,99530.76
2023-04-23T15:01:07.533Z,99531.36
2023-04-23T15:03:20.895Z,99526.81
2023-04-23T15:05:35.138Z,99530.35
2023-04-23T15:07:48.571Z,99522.7
2023-04-23T15:10:04.570Z,99525.09
2023-04-23T15:12:20.911Z,99526.36
2023-04-23T15:14:36.792Z,99525.72
2023-04-23T15:16:52.871Z,99521.75
2023-04-23T15:19:06.764Z,99522.35
2023-04-23T15:21:19.461Z,99523.99
2023-04-23T15:23:33.008Z,99521.91
2023-04-23T15:25:50.089Z,99520.05
2023-04-23T15:28:04.209Z,99520.56
2023-04-23T15:30:23.150Z,99517.86
2023-04-23T15:32:39.771Z,99514.44
2023-04-23T15:34:51.919Z,99511.13
2023-04-23T15:37:03.036Z,99510.59
2023-04-23T15:39:15.359Z,99507.58
2023-04-23T15:41:33.379Z,99504.92
2023-04-23T15:43:52.837Z,99505.42
2023-04-23T15:46:12.493Z,99505.94
2023-04-23T15:48:25.604Z,99500.3
2023-04-23T15:50:42.196Z,99503.41
2023-04-23T15:53:00.020Z,99502.41
2023-04-23T15:55:20.299Z,99504.09
2023-04-23T15:57:36.881Z,99498.55
2023-04-23T15:59:51.160Z,99502.25
2023-04-23T16:02:08.165Z,99499.2
2023-04-23T16:04:32.950Z,99494.04
2023-04-23T16:06:56.393Z,99493.33
2023-04-23T16:09:13.651Z,99492.76
2023-04-23T16:11:30.437Z,99496.84
2023-04-23T16:13:44.614Z,99493.05
2023-04-23T16:15:58.606Z,99496.57
2023-04-23T16:18:12.989Z,99493.34
2023-04-23T16:20:28.916Z,99487.5
2023-04-23T16:22:41.854Z,99486.64
2023-04-23T16:24:57.360Z,99485.57
2023-04-23T16:27:16.792Z,99485.8
2023-04-23T16:29:28.956Z,99481.83
2023-04-23T16:31:52.113Z,99486.66
2023-04-23T16:34:11.995Z,99484.93
2023-04-23T16:36:24.917Z,99481
2023-04-23T16:38:37.885Z,99477.64
2023-04-23T16:40:51.934Z,99480.19
2023-04-23T16:43:06.814Z,99478.47
2023-04-23T16:45:25.517Z,99481.58
2023-04-23T16:47:37.154Z,99479.97
2023-04-23T16:50:07.764Z,99485
2023-04-23T16:52:22.954Z,99479.36
2023-04-23T16:54:35.777Z,99476.63
2023-04-23T16:56:47.630Z,99469.73
2023-04-23T16:59:04.500Z,99472.91
2023-04-23T17:01:20.145Z,99475.2
2023-04-23T17:03:34.120Z,99472.39
2023-04-23T17:05:49.836Z,99473.64
2023-04-23T17:08:04.174Z,99472.88
2023-04-23T17:10:23.456Z,99469.8
2023-04-23T17:12:37.595Z,99469.44
2023-04-23T17:14:54.094Z,99471.61
2023-04-23T17:17:08.133Z,99468.16
2023-04-23T17:19:28.377Z,99466.84
2023-04-23T17:21:40.115Z,99471.2
2023-04-23T17:23:55.595Z,99467.25
2023-04-23T17:26:09.934Z,99472.28
2023-04-23T17:28:26.374Z,99466.41
2023-04-23T17:30:40.996Z,99464.62
2023-04-23T17:32:58.886Z,99463.43
2023-04-23T17:35:13.638Z,99461.66
2023-04-23T17:37:34.617Z,99462.38
2023-04-23T17:39:51.298Z,99462.77
2023-04-23T17:42:05.219Z,99461.39
2023-04-23T17:44:22.456Z,99462.5
2023-04-23T17:46:38.278Z,99456.55
2023-04-23T17:48:54.515Z,99455.56
2023-04-23T17:51:13.018Z,99457.01
2023-04-23T17:53:28.797Z,99455.75
2023-04-23T17:55:44.661Z,99453.36
2023-04-23T17:57:57.075Z,99453.53
2023-04-23T18:00:26.456Z,99458.16
2023-04-23T18:02:42.712Z,99458.29
2023-04-23T18:05:03.317Z,99458.55
2023-04-23T18:07:16.921Z,99457.03
2023-04-23T18:09:32.076Z,99460.72
2023-04-23T18:11:45.836Z,99464.69
2023-04-23T18:14:03.220Z,99464.67
2023-04-23T18:16:16.810Z,99461.75
2023-04-23T18:18:41.635Z,99462.69
2023-04-23T18:20:55.157Z,99463.52
2023-04-23T18:23:09.836Z,99462.78
2023-04-23T18:25:25.118Z,99465.73
2023-04-23T18:27:41.612Z,99469.56
2023-04-23T18:29:56.253Z,99472.36
2023-04-23T18:32:27.766Z,99469.45
2023-04-23T18:34:51.275Z,99471.98
2023-04-23T18:37:06.295Z,99476.82
2023-04-23T18:39:21.576Z,99472.78
2023-04-23T18:41:39.215Z,99469.55
2023-04-23T18:43:55.186Z,99471.09
2023-04-23T18:46:09.245Z,99472.42
2023-04-23T18:48:25.782Z,99466.83
2023-04-23T18:50:41.537Z,99470.3
2023-04-23T18:52:53.834Z,99467.5
2023-04-23T18:55:07.820Z,99469.2
2023-04-23T18:57:21.402Z,99471.83
2023-04-23T18:59:37.531Z,99474.42
2023-04-23T19:01:59.330Z,99468.52
2023-04-23T19:04:15.330Z,99471.24
2023-04-23T19:06:31.515Z,99470.52
2023-04-23T19:08:44.458Z,99470.8
2023-04-23T19:10:57.057Z,99469.31
2023-04-23T19:13:11.113Z,99468.5
2023-04-23T19:15:27.874Z,99470.56
2023-04-23T19:17:42.340Z,99468.41
2023-04-23T19:19:56.115Z,99462.4
2023-04-23T19:22:09.779Z,99469.22
2023-04-23T19:24:25.653Z,99467
2023-04-23T19:26:40.937Z,99465.05
2023-04-23T19:28:54.452Z,99464.03
2023-04-23T19:31:12.749Z,99465.56
2023-04-23T19:33:40.435Z,99463.55
2023-04-23T19:35:54.561Z,99460.67
2023-04-23T19:38:09.278Z,99464.11
2023-04-23T19:40:26.394Z,99459.64
2023-04-23T19:42:41.699Z,99460.09
2023-04-23T19:44:58.292Z,99459.05
2023-04-23T19:47:11.776Z,99457.01
2023-04-23T19:49:24.715Z,99457.09
2023-04-23T19:51:39.362Z,99458.63
2023-04-23T19:53:54.815Z,99458.59
2023-04-23T19:56:07.891Z,99456.34
2023-04-23T19:58:21.797Z,99454.72
2023-04-23T20:00:40.992Z,99455.83
2023-04-23T20:02:57.571Z,99459.58
2023-04-23T20:05:17.510Z,99453.7
2023-04-23T20:07:34.213Z,99451.43
2023-04-23T20:09:51.296Z,99451.27
2023-04-23T20:12:04.198Z,99450.75
2023-04-23T20:14:17.531Z,99451.56
2023-04-23T20:16:30.764Z,99445.94
2023-04-23T20:18:43.354Z,99448.89
2023-04-23T20:20:56.342Z,99449.95
2023-04-23T20:23:09.194Z,99448.73
2023-04-23T20:25:28.717Z,99443.44
2023-04-23T20:27:43.655Z,99446.24
2023-04-23T20:29:55.893Z,99449.61
2023-04-23T20:32:09.609Z,99445.86
2023-04-23T20:34:22.693Z,99447.09
2023-04-23T20:36:40.082Z,99442.2
2023-04-23T20:38:53.734Z,99443.78
2023-04-23T20:41:08.999Z,99440.45
2023-04-23T20:43:20.910Z,99438.97
2023-04-23T20:45:35.611Z,99439.55
2023-04-23T20:47:50.265Z,99442
2023-04-23T20:50:02.396Z,99440.84
2023-04-23T20:52:15.015Z,99440.01
2023-04-23T20:54:25.456Z,99441.1
2023-04-23T20:56:42.120Z,99441.41
2023-04-23T20:58:54.867Z,99443.92
2023-04-23T21:01:08.474Z,99442.64
2023-04-23T21:03:21.997Z,99443.76
2023-04-23T21:05:38.772Z,99442.62
2023-04-23T21:07:53.877Z,99439.45
2023-04-23T21:10:06.220Z,99442.83
2023-04-23T21:12:18.677Z,99444.17
2023-04-23T21:14:31.220Z,99449.29
2023-04-23T21:16:44.255Z,99446.02
2023-04-23T21:18:59.717Z,99444.2
2023-04-23T21:21:12.814Z,99442.44
2023-04-23T21:23:24.675Z,99433.93
2023-04-23T21:25:40.260Z,99435.05
2023-04-23T21:27:52.916Z,99437.92
2023-04-23T21:30:06.797Z,99450.33
2023-04-23T21:32:21.347Z,99470.48
2023-04-23T21:34:48.551Z,99464.44
2023-04-23T21:37:02.658Z,99465.89
2023-04-23T21:39:16.978Z,99469.09
2023-04-23T21:41:28.756Z,99460.75
2023-04-23T21:43:41.794Z,99460.52
2023-04-23T21:45:52.634Z,99455.53
2023-04-23T21:48:03.954Z,99455.83
2023-04-23T21:50:15.512Z,99458.36
2023-04-23T21:52:28.295Z,99452.23
2023-04-23T21:54:38.921Z,99444.41
2023-04-23T21:56:49.702Z,99443.66
2023-04-23T21:59:00.742Z,99442.3
2023-04-23T22:01:11.482Z,99441.05
2023-04-23T22:03:42.783Z,99435.88
2023-04-23T22:05:56.396Z,99439.92
2023-04-23T22:08:09.975Z,99437.27
2023-04-23T22:10:22.402Z,99435.05
2023-04-23T22:12:37.735Z,99438.38
2023-04-23T22:14:53.104Z,99433.7
2023-04-23T22:17:04.364Z,99432.32
2023-04-23T22:19:16.856Z,99435.21
2023-04-23T22:21:29.191Z,99430.75
2023-04-23T22:23:40.436Z,99427.75
2023-04-23T22:25:53.382Z,99434.2
2023-04-23T22:28:06.136Z,99429.2
2023-04-23T22:30:17.832Z,99430.05
2023-04-23T22:32:30.255Z,99431.28
2023-04-23T22:34:43.654Z,99428.56
2023-04-23T22:36:56.156Z,99427.45
2023-04-23T22:39:07.775Z,99431.02
2023-04-23T22:41:18.976Z,99428.17
2023-04-23T22:43:32.871Z,99433.58
2023-04-23T22:45:59.420Z,99428.88
2023-04-23T22:48:15.092Z,99425.31
2023-04-23T22:50:28.109Z,99426.53
2023-04-23T22:52:40.495Z,99421.58
2023-04-23T22:54:55.797Z,99425.65
2023-04-23T22:57:06.547Z,99420.98
2023-04-23T22:59:18.750Z,99421.32
2023-04-23T23:01:31.809Z,99424.48
2023-04-23T23:03:43.871Z,99415.31
2023-04-23T23:05:59.895Z,99411.85
2023-04-23T23:08:12.098Z,99409.73
2023-04-23T23:10:25.188Z,99410.48
2023-04-23T23:12:36.072Z,99412.69
2023-04-23T23:14:51.133Z,99408.19
2023-04-23T23:17:03.631Z,99403.58
2023-04-23T23:19:20.076Z,99402.59
2023-04-23T23:21:29.212Z,99400.7
2023-04-23T23:23:40.168Z,99400.41
2023-04-23T23:25:51.074Z,99397.06
2023-04-23T23:28:02.833Z,99392.58
2023-04-23T23:30:14.638Z,99391.81
2023-04-23T23:32:29.821Z,99387.89
2023-04-23T23:34:42.603Z,99384.8
2023-04-23T23:36:55.113Z,99394.21
2023-04-23T23:39:07.575Z,99401.61
2023-04-23T23:41:19.393Z,99398.3
2023-04-23T23:43:30.589Z,99395.79
2023-04-23T23:45:40.470Z,99397.92
2023-04-23T23:47:53.595Z,99396.23
2023-04-23T23:50:06.792Z,99396.8
2023-04-23T23:52:20.155Z,99392.14
2023-04-23T23:54:30.934Z,99394.49
2023-04-23T23:56:43.034Z,99391.39
2023-04-23T23:58:55.094Z,99393.83
